sensor_id;sensor_type;location;lat;lon;timestamp;P1;durP1;ratioP1;P2;durP2;ratioP2
67442;SDS011;54311;51.726;5.154;2023-07-28T00:02:07;12.75;;;11.73;;
67442;SDS011;54311;51.726;5.154;2023-07-28T00:04:36;11.63;;;10.77;;
67442;SDS011;54311;51.726;5.154;2023-07-28T00:07:02;11.27;;;10.38;;
67442;SDS011;54311;51.726;5.154;2023-07-28T00:09:28;11.63;;;10.82;;
67442;SDS011;54311;51.726;5.154;2023-07-28T00:11:53;13.18;;;10.68;;
67442;SDS011;54311;51.726;5.154;2023-07-28T00:14:18;12.20;;;10.90;;
67442;SDS011;54311;51.726;5.154;2023-07-28T00:16:44;11.40;;;10.60;;
67442;SDS011;54311;51.726;5.154;2023-07-28T00:19:09;11.48;;;10.52;;
67442;SDS011;54311;51.726;5.154;2023-07-28T00:21:34;12.00;;;10.98;;
67442;SDS011;54311;51.726;5.154;2023-07-28T00:24:00;14.57;;;11.48;;
67442;SDS011;54311;51.726;5.154;2023-07-28T00:26:25;12.10;;;11.00;;
67442;SDS011;54311;51.726;5.154;2023-07-28T00:28:50;11.63;;;10.60;;
67442;SDS011;54311;51.726;5.154;2023-07-28T00:31:16;12.60;;;11.30;;
67442;SDS011;54311;51.726;5.154;2023-07-28T00:33:41;11.48;;;10.25;;
67442;SDS011;54311;51.726;5.154;2023-07-28T00:36:07;11.73;;;10.63;;
67442;SDS011;54311;51.726;5.154;2023-07-28T00:38:32;12.30;;;11.07;;
67442;SDS011;54311;51.726;5.154;2023-07-28T00:40:58;13.45;;;11.68;;
67442;SDS011;54311;51.726;5.154;2023-07-28T00:43:23;13.25;;;11.23;;
67442;SDS011;54311;51.726;5.154;2023-07-28T00:45:48;13.18;;;11.88;;
67442;SDS011;54311;51.726;5.154;2023-07-28T00:48:14;12.93;;;11.73;;
67442;SDS011;54311;51.726;5.154;2023-07-28T00:50:41;13.63;;;11.80;;
67442;SDS011;54311;51.726;5.154;2023-07-28T00:53:07;14.15;;;12.70;;
67442;SDS011;54311;51.726;5.154;2023-07-28T00:55:32;14.70;;;12.15;;
67442;SDS011;54311;51.726;5.154;2023-07-28T00:57:58;14.30;;;12.77;;
67442;SDS011;54311;51.726;5.154;2023-07-28T01:00:24;13.52;;;11.95;;
67442;SDS011;54311;51.726;5.154;2023-07-28T01:02:49;14.25;;;12.63;;
67442;SDS011;54311;51.726;5.154;2023-07-28T01:05:14;17.95;;;12.85;;
67442;SDS011;54311;51.726;5.154;2023-07-28T01:10:39;14.73;;;13.10;;
67442;SDS011;54311;51.726;5.154;2023-07-28T01:13:04;17.88;;;13.57;;
67442;SDS011;54311;51.726;5.154;2023-07-28T01:15:29;14.48;;;12.98;;
67442;SDS011;54311;51.726;5.154;2023-07-28T01:17:55;15.63;;;12.90;;
67442;SDS011;54311;51.726;5.154;2023-07-28T01:20:21;15.18;;;12.98;;
67442;SDS011;54311;51.726;5.154;2023-07-28T01:28:09;19.57;;;12.70;;
67442;SDS011;54311;51.726;5.154;2023-07-28T01:30:36;16.73;;;13.15;;
67442;SDS011;54311;51.726;5.154;2023-07-28T01:33:01;16.80;;;13.32;;
67442;SDS011;54311;51.726;5.154;2023-07-28T01:35:31;16.92;;;13.77;;
67442;SDS011;54311;51.726;5.154;2023-07-28T01:37:56;21.83;;;14.10;;
67442;SDS011;54311;51.726;5.154;2023-07-28T01:40:21;19.05;;;13.50;;
67442;SDS011;54311;51.726;5.154;2023-07-28T01:42:47;19.48;;;14.13;;
67442;SDS011;54311;51.726;5.154;2023-07-28T01:45:12;17.27;;;12.85;;
67442;SDS011;54311;51.726;5.154;2023-07-28T01:47:37;22.90;;;13.88;;
67442;SDS011;54311;51.726;5.154;2023-07-28T01:50:03;19.42;;;13.77;;
67442;SDS011;54311;51.726;5.154;2023-07-28T01:52:29;19.92;;;13.63;;
67442;SDS011;54311;51.726;5.154;2023-07-28T01:54:54;18.75;;;13.35;;
67442;SDS011;54311;51.726;5.154;2023-07-28T01:57:19;16.33;;;12.75;;
67442;SDS011;54311;51.726;5.154;2023-07-28T01:59:45;20.30;;;13.77;;
67442;SDS011;54311;51.726;5.154;2023-07-28T02:02:10;17.45;;;12.93;;
67442;SDS011;54311;51.726;5.154;2023-07-28T02:04:35;21.48;;;13.45;;
67442;SDS011;54311;51.726;5.154;2023-07-28T02:07:01;21.70;;;14.13;;
67442;SDS011;54311;51.726;5.154;2023-07-28T02:09:26;21.20;;;13.73;;
67442;SDS011;54311;51.726;5.154;2023-07-28T02:11:52;21.90;;;14.27;;
67442;SDS011;54311;51.726;5.154;2023-07-28T02:14:17;19.73;;;13.73;;
67442;SDS011;54311;51.726;5.154;2023-07-28T02:16:43;23.17;;;14.20;;
67442;SDS011;54311;51.726;5.154;2023-07-28T02:19:08;21.90;;;14.52;;
67442;SDS011;54311;51.726;5.154;2023-07-28T02:21:33;28.58;;;15.30;;
67442;SDS011;54311;51.726;5.154;2023-07-28T02:23:59;24.73;;;14.70;;
67442;SDS011;54311;51.726;5.154;2023-07-28T02:26:24;25.02;;;14.73;;
67442;SDS011;54311;51.726;5.154;2023-07-28T02:28:50;24.73;;;15.85;;
67442;SDS011;54311;51.726;5.154;2023-07-28T02:31:15;24.17;;;15.15;;
67442;SDS011;54311;51.726;5.154;2023-07-28T02:33:41;29.45;;;16.63;;
67442;SDS011;54311;51.726;5.154;2023-07-28T02:36:06;25.83;;;16.60;;
67442;SDS011;54311;51.726;5.154;2023-07-28T02:38:31;25.00;;;16.55;;
67442;SDS011;54311;51.726;5.154;2023-07-28T02:40:57;29.10;;;18.02;;
67442;SDS011;54311;51.726;5.154;2023-07-28T02:43:22;32.10;;;19.05;;
67442;SDS011;54311;51.726;5.154;2023-07-28T02:45:54;30.73;;;17.92;;
67442;SDS011;54311;51.726;5.154;2023-07-28T02:48:20;31.77;;;19.25;;
67442;SDS011;54311;51.726;5.154;2023-07-28T02:50:47;35.33;;;20.05;;
67442;SDS011;54311;51.726;5.154;2023-07-28T02:53:15;29.00;;;19.25;;
67442;SDS011;54311;51.726;5.154;2023-07-28T02:55:41;33.20;;;20.77;;
67442;SDS011;54311;51.726;5.154;2023-07-28T02:58:07;35.53;;;21.50;;
67442;SDS011;54311;51.726;5.154;2023-07-28T03:00:33;33.50;;;20.83;;
67442;SDS011;54311;51.726;5.154;2023-07-28T03:02:58;32.83;;;21.00;;
67442;SDS011;54311;51.726;5.154;2023-07-28T03:05:23;39.70;;;21.23;;
67442;SDS011;54311;51.726;5.154;2023-07-28T03:07:49;35.67;;;22.60;;
67442;SDS011;54311;51.726;5.154;2023-07-28T03:10:15;36.42;;;23.42;;
67442;SDS011;54311;51.726;5.154;2023-07-28T03:12:43;37.30;;;23.52;;
67442;SDS011;54311;51.726;5.154;2023-07-28T03:15:09;44.95;;;24.23;;
67442;SDS011;54311;51.726;5.154;2023-07-28T03:17:34;35.08;;;21.48;;
67442;SDS011;54311;51.726;5.154;2023-07-28T03:20:00;40.58;;;24.38;;
67442;SDS011;54311;51.726;5.154;2023-07-28T03:22:25;44.40;;;25.15;;
67442;SDS011;54311;51.726;5.154;2023-07-28T03:24:50;42.17;;;26.35;;
67442;SDS011;54311;51.726;5.154;2023-07-28T03:27:16;42.00;;;25.50;;
67442;SDS011;54311;51.726;5.154;2023-07-28T03:29:41;36.63;;;24.10;;
67442;SDS011;54311;51.726;5.154;2023-07-28T03:32:07;44.50;;;27.50;;
67442;SDS011;54311;51.726;5.154;2023-07-28T03:34:33;46.05;;;25.80;;
67442;SDS011;54311;51.726;5.154;2023-07-28T03:36:58;46.33;;;28.30;;
67442;SDS011;54311;51.726;5.154;2023-07-28T03:39:23;44.35;;;28.05;;
67442;SDS011;54311;51.726;5.154;2023-07-28T03:41:49;49.25;;;27.38;;
67442;SDS011;54311;51.726;5.154;2023-07-28T03:44:14;52.00;;;28.10;;
67442;SDS011;54311;51.726;5.154;2023-07-28T03:46:41;45.25;;;26.27;;
67442;SDS011;54311;51.726;5.154;2023-07-28T03:49:06;50.28;;;28.50;;
67442;SDS011;54311;51.726;5.154;2023-07-28T03:51:32;51.03;;;27.30;;
67442;SDS011;54311;51.726;5.154;2023-07-28T03:53:57;49.00;;;28.33;;
67442;SDS011;54311;51.726;5.154;2023-07-28T03:56:22;45.45;;;27.75;;
67442;SDS011;54311;51.726;5.154;2023-07-28T03:58:48;47.38;;;27.70;;
67442;SDS011;54311;51.726;5.154;2023-07-28T04:01:13;50.70;;;26.88;;
67442;SDS011;54311;51.726;5.154;2023-07-28T04:03:38;51.67;;;29.08;;
67442;SDS011;54311;51.726;5.154;2023-07-28T04:06:06;55.45;;;31.55;;
67442;SDS011;54311;51.726;5.154;2023-07-28T04:08:34;58.30;;;29.98;;
67442;SDS011;54311;51.726;5.154;2023-07-28T04:11:00;47.08;;;29.88;;
67442;SDS011;54311;51.726;5.154;2023-07-28T04:13:25;49.65;;;29.92;;
67442;SDS011;54311;51.726;5.154;2023-07-28T04:15:50;58.30;;;33.30;;
67442;SDS011;54311;51.726;5.154;2023-07-28T04:18:16;51.83;;;33.28;;
67442;SDS011;54311;51.726;5.154;2023-07-28T04:20:43;65.53;;;33.05;;
67442;SDS011;54311;51.726;5.154;2023-07-28T04:23:08;63.13;;;35.72;;
67442;SDS011;54311;51.726;5.154;2023-07-28T04:25:33;65.55;;;34.47;;
67442;SDS011;54311;51.726;5.154;2023-07-28T04:27:59;62.03;;;34.58;;
67442;SDS011;54311;51.726;5.154;2023-07-28T04:30:24;66.00;;;34.63;;
67442;SDS011;54311;51.726;5.154;2023-07-28T04:32:49;65.25;;;34.60;;
67442;SDS011;54311;51.726;5.154;2023-07-28T04:35:15;63.28;;;35.25;;
67442;SDS011;54311;51.726;5.154;2023-07-28T04:37:40;59.10;;;34.85;;
67442;SDS011;54311;51.726;5.154;2023-07-28T04:40:06;65.72;;;35.35;;
67442;SDS011;54311;51.726;5.154;2023-07-28T04:42:33;59.13;;;35.78;;
67442;SDS011;54311;51.726;5.154;2023-07-28T04:44:58;58.65;;;34.45;;
67442;SDS011;54311;51.726;5.154;2023-07-28T04:47:24;70.32;;;34.13;;
67442;SDS011;54311;51.726;5.154;2023-07-28T04:49:49;67.35;;;36.03;;
67442;SDS011;54311;51.726;5.154;2023-07-28T04:52:14;68.82;;;35.55;;
67442;SDS011;54311;51.726;5.154;2023-07-28T04:54:40;67.82;;;35.38;;
67442;SDS011;54311;51.726;5.154;2023-07-28T04:57:05;61.35;;;35.33;;
67442;SDS011;54311;51.726;5.154;2023-07-28T04:59:31;63.58;;;34.67;;
67442;SDS011;54311;51.726;5.154;2023-07-28T05:01:56;65.75;;;33.58;;
67442;SDS011;54311;51.726;5.154;2023-07-28T05:04:21;63.33;;;35.25;;
67442;SDS011;54311;51.726;5.154;2023-07-28T05:06:47;59.20;;;34.83;;
67442;SDS011;54311;51.726;5.154;2023-07-28T05:09:12;55.42;;;33.00;;
67442;SDS011;54311;51.726;5.154;2023-07-28T05:11:37;61.13;;;35.30;;
67442;SDS011;54311;51.726;5.154;2023-07-28T05:14:03;61.58;;;32.70;;
67442;SDS011;54311;51.726;5.154;2023-07-28T05:16:31;67.97;;;34.80;;
67442;SDS011;54311;51.726;5.154;2023-07-28T05:18:57;62.10;;;33.42;;
67442;SDS011;54311;51.726;5.154;2023-07-28T05:21:22;68.05;;;34.85;;
67442;SDS011;54311;51.726;5.154;2023-07-28T05:23:47;54.70;;;32.22;;
67442;SDS011;54311;51.726;5.154;2023-07-28T05:26:13;62.90;;;32.63;;
67442;SDS011;54311;51.726;5.154;2023-07-28T05:28:38;54.92;;;32.47;;
67442;SDS011;54311;51.726;5.154;2023-07-28T05:31:04;58.03;;;32.58;;
67442;SDS011;54311;51.726;5.154;2023-07-28T05:33:30;67.57;;;34.50;;
67442;SDS011;54311;51.726;5.154;2023-07-28T05:36:05;58.55;;;32.42;;
67442;SDS011;54311;51.726;5.154;2023-07-28T05:38:30;59.22;;;33.10;;
67442;SDS011;54311;51.726;5.154;2023-07-28T05:40:59;53.95;;;32.15;;
67442;SDS011;54311;51.726;5.154;2023-07-28T05:43:28;53.28;;;31.42;;
67442;SDS011;54311;51.726;5.154;2023-07-28T05:45:54;59.42;;;30.33;;
67442;SDS011;54311;51.726;5.154;2023-07-28T05:48:21;53.05;;;31.13;;
67442;SDS011;54311;51.726;5.154;2023-07-28T05:50:46;55.30;;;31.88;;
67442;SDS011;54311;51.726;5.154;2023-07-28T05:53:11;53.25;;;29.50;;
67442;SDS011;54311;51.726;5.154;2023-07-28T05:55:38;53.92;;;30.85;;
67442;SDS011;54311;51.726;5.154;2023-07-28T05:58:04;61.10;;;32.17;;
67442;SDS011;54311;51.726;5.154;2023-07-28T06:00:29;54.40;;;31.23;;
67442;SDS011;54311;51.726;5.154;2023-07-28T06:02:55;55.22;;;30.48;;
67442;SDS011;54311;51.726;5.154;2023-07-28T06:05:20;50.97;;;30.67;;
67442;SDS011;54311;51.726;5.154;2023-07-28T06:07:45;53.50;;;29.85;;
67442;SDS011;54311;51.726;5.154;2023-07-28T06:10:11;56.85;;;31.00;;
67442;SDS011;54311;51.726;5.154;2023-07-28T06:12:36;58.38;;;31.67;;
67442;SDS011;54311;51.726;5.154;2023-07-28T06:15:01;59.80;;;33.53;;
67442;SDS011;54311;51.726;5.154;2023-07-28T06:17:27;61.15;;;33.90;;
67442;SDS011;54311;51.726;5.154;2023-07-28T06:19:53;53.38;;;31.98;;
67442;SDS011;54311;51.726;5.154;2023-07-28T06:22:19;60.00;;;31.77;;
67442;SDS011;54311;51.726;5.154;2023-07-28T06:24:44;58.40;;;32.28;;
67442;SDS011;54311;51.726;5.154;2023-07-28T06:27:10;57.88;;;33.67;;
67442;SDS011;54311;51.726;5.154;2023-07-28T06:29:35;59.13;;;31.08;;
67442;SDS011;54311;51.726;5.154;2023-07-28T06:32:01;54.17;;;31.77;;
67442;SDS011;54311;51.726;5.154;2023-07-28T06:34:26;50.75;;;29.77;;
67442;SDS011;54311;51.726;5.154;2023-07-28T06:36:51;55.35;;;30.40;;
67442;SDS011;54311;51.726;5.154;2023-07-28T06:39:17;55.10;;;28.60;;
67442;SDS011;54311;51.726;5.154;2023-07-28T06:41:42;52.13;;;29.85;;
67442;SDS011;54311;51.726;5.154;2023-07-28T06:44:08;57.17;;;29.05;;
67442;SDS011;54311;51.726;5.154;2023-07-28T06:46:34;52.72;;;30.63;;
67442;SDS011;54311;51.726;5.154;2023-07-28T06:48:59;46.75;;;28.63;;
67442;SDS011;54311;51.726;5.154;2023-07-28T06:51:24;49.13;;;28.27;;
67442;SDS011;54311;51.726;5.154;2023-07-28T06:53:50;43.35;;;26.50;;
67442;SDS011;54311;51.726;5.154;2023-07-28T06:56:16;42.20;;;26.23;;
67442;SDS011;54311;51.726;5.154;2023-07-28T06:58:41;40.67;;;27.15;;
67442;SDS011;54311;51.726;5.154;2023-07-28T07:01:06;44.83;;;27.23;;
67442;SDS011;54311;51.726;5.154;2023-07-28T07:03:35;39.28;;;26.17;;
67442;SDS011;54311;51.726;5.154;2023-07-28T07:06:01;42.00;;;27.05;;
67442;SDS011;54311;51.726;5.154;2023-07-28T07:08:26;41.80;;;25.88;;
67442;SDS011;54311;51.726;5.154;2023-07-28T07:10:52;34.47;;;24.77;;
67442;SDS011;54311;51.726;5.154;2023-07-28T07:13:18;41.33;;;25.42;;
67442;SDS011;54311;51.726;5.154;2023-07-28T07:15:43;36.22;;;25.30;;
67442;SDS011;54311;51.726;5.154;2023-07-28T07:18:09;36.75;;;26.60;;
67442;SDS011;54311;51.726;5.154;2023-07-28T07:20:35;39.10;;;26.08;;
67442;SDS011;54311;51.726;5.154;2023-07-28T07:23:03;38.05;;;25.05;;
67442;SDS011;54311;51.726;5.154;2023-07-28T07:25:29;42.58;;;25.77;;
67442;SDS011;54311;51.726;5.154;2023-07-28T07:27:55;43.30;;;27.20;;
67442;SDS011;54311;51.726;5.154;2023-07-28T07:30:20;35.53;;;24.77;;
67442;SDS011;54311;51.726;5.154;2023-07-28T07:32:46;42.78;;;26.13;;
67442;SDS011;54311;51.726;5.154;2023-07-28T07:35:11;40.85;;;26.17;;
67442;SDS011;54311;51.726;5.154;2023-07-28T07:37:37;38.20;;;25.00;;
67442;SDS011;54311;51.726;5.154;2023-07-28T07:40:03;41.08;;;25.30;;
67442;SDS011;54311;51.726;5.154;2023-07-28T07:42:30;39.83;;;26.30;;
67442;SDS011;54311;51.726;5.154;2023-07-28T07:45:06;34.35;;;25.77;;
67442;SDS011;54311;51.726;5.154;2023-07-28T07:47:32;41.38;;;26.42;;
67442;SDS011;54311;51.726;5.154;2023-07-28T07:49:57;47.63;;;26.70;;
67442;SDS011;54311;51.726;5.154;2023-07-28T07:52:23;39.78;;;26.77;;
67442;SDS011;54311;51.726;5.154;2023-07-28T07:54:48;37.60;;;24.95;;
67442;SDS011;54311;51.726;5.154;2023-07-28T07:57:13;38.50;;;26.42;;
67442;SDS011;54311;51.726;5.154;2023-07-28T07:59:39;40.22;;;26.35;;
67442;SDS011;54311;51.726;5.154;2023-07-28T08:02:04;41.88;;;27.95;;
67442;SDS011;54311;51.726;5.154;2023-07-28T08:04:30;44.83;;;28.05;;
67442;SDS011;54311;51.726;5.154;2023-07-28T08:06:56;39.47;;;28.23;;
67442;SDS011;54311;51.726;5.154;2023-07-28T08:09:22;46.58;;;28.98;;
67442;SDS011;54311;51.726;5.154;2023-07-28T08:11:47;42.28;;;27.60;;
67442;SDS011;54311;51.726;5.154;2023-07-28T08:14:12;39.20;;;26.88;;
67442;SDS011;54311;51.726;5.154;2023-07-28T08:16:38;37.60;;;29.00;;
67442;SDS011;54311;51.726;5.154;2023-07-28T08:19:03;38.92;;;27.80;;
67442;SDS011;54311;51.726;5.154;2023-07-28T08:21:29;38.78;;;28.23;;
67442;SDS011;54311;51.726;5.154;2023-07-28T08:23:56;35.47;;;27.67;;
67442;SDS011;54311;51.726;5.154;2023-07-28T08:26:21;39.45;;;28.30;;
67442;SDS011;54311;51.726;5.154;2023-07-28T08:28:47;40.42;;;26.63;;
67442;SDS011;54311;51.726;5.154;2023-07-28T08:31:12;37.55;;;26.80;;
67442;SDS011;54311;51.726;5.154;2023-07-28T08:33:37;36.25;;;26.33;;
67442;SDS011;54311;51.726;5.154;2023-07-28T08:36:03;38.40;;;26.17;;
67442;SDS011;54311;51.726;5.154;2023-07-28T08:38:29;36.40;;;25.80;;
67442;SDS011;54311;51.726;5.154;2023-07-28T08:40:56;38.78;;;26.77;;
67442;SDS011;54311;51.726;5.154;2023-07-28T08:43:23;33.13;;;24.90;;
67442;SDS011;54311;51.726;5.154;2023-07-28T08:45:48;35.42;;;23.83;;
67442;SDS011;54311;51.726;5.154;2023-07-28T08:48:14;25.58;;;20.90;;
67442;SDS011;54311;51.726;5.154;2023-07-28T08:50:40;29.17;;;19.98;;
67442;SDS011;54311;51.726;5.154;2023-07-28T08:53:05;28.42;;;21.17;;
67442;SDS011;54311;51.726;5.154;2023-07-28T08:55:31;25.88;;;20.50;;
67442;SDS011;54311;51.726;5.154;2023-07-28T08:58:13;30.40;;;21.77;;
67442;SDS011;54311;51.726;5.154;2023-07-28T09:00:41;29.63;;;20.70;;
67442;SDS011;54311;51.726;5.154;2023-07-28T09:03:08;28.45;;;21.08;;
67442;SDS011;54311;51.726;5.154;2023-07-28T09:05:34;27.08;;;20.02;;
67442;SDS011;54311;51.726;5.154;2023-07-28T09:07:59;26.90;;;21.02;;
67442;SDS011;54311;51.726;5.154;2023-07-28T09:10:24;25.90;;;20.08;;
67442;SDS011;54311;51.726;5.154;2023-07-28T09:12:50;21.88;;;17.25;;
67442;SDS011;54311;51.726;5.154;2023-07-28T09:15:15;23.30;;;15.88;;
67442;SDS011;54311;51.726;5.154;2023-07-28T09:17:44;23.85;;;16.95;;
67442;SDS011;54311;51.726;5.154;2023-07-28T09:20:14;20.65;;;18.00;;
67442;SDS011;54311;51.726;5.154;2023-07-28T09:22:40;23.48;;;16.92;;
67442;SDS011;54311;51.726;5.154;2023-07-28T09:25:12;20.85;;;15.80;;
67442;SDS011;54311;51.726;5.154;2023-07-28T09:27:39;21.80;;;16.02;;
67442;SDS011;54311;51.726;5.154;2023-07-28T09:30:04;23.67;;;18.58;;
67442;SDS011;54311;51.726;5.154;2023-07-28T09:32:31;21.75;;;17.80;;
67442;SDS011;54311;51.726;5.154;2023-07-28T09:35:08;22.90;;;17.73;;
67442;SDS011;54311;51.726;5.154;2023-07-28T09:37:36;26.27;;;18.15;;
67442;SDS011;54311;51.726;5.154;2023-07-28T09:40:03;24.10;;;19.10;;
67442;SDS011;54311;51.726;5.154;2023-07-28T09:42:31;24.58;;;20.02;;
67442;SDS011;54311;51.726;5.154;2023-07-28T09:44:57;22.60;;;20.10;;
67442;SDS011;54311;51.726;5.154;2023-07-28T09:47:23;23.67;;;19.05;;
67442;SDS011;54311;51.726;5.154;2023-07-28T09:49:49;22.80;;;18.25;;
67442;SDS011;54311;51.726;5.154;2023-07-28T09:52:15;24.20;;;17.33;;
67442;SDS011;54311;51.726;5.154;2023-07-28T09:54:42;18.90;;;16.75;;
67442;SDS011;54311;51.726;5.154;2023-07-28T09:57:10;22.58;;;17.40;;
67442;SDS011;54311;51.726;5.154;2023-07-28T09:59:38;20.23;;;16.55;;
67442;SDS011;54311;51.726;5.154;2023-07-28T10:02:04;21.23;;;15.48;;
67442;SDS011;54311;51.726;5.154;2023-07-28T10:04:30;21.73;;;14.65;;
67442;SDS011;54311;51.726;5.154;2023-07-28T10:06:59;17.45;;;14.73;;
67442;SDS011;54311;51.726;5.154;2023-07-28T10:09:25;17.90;;;14.20;;
67442;SDS011;54311;51.726;5.154;2023-07-28T10:11:52;14.40;;;13.00;;
67442;SDS011;54311;51.726;5.154;2023-07-28T10:14:32;15.43;;;12.40;;
67442;SDS011;54311;51.726;5.154;2023-07-28T10:16:59;13.77;;;12.23;;
67442;SDS011;54311;51.726;5.154;2023-07-28T10:19:29;12.75;;;11.45;;
67442;SDS011;54311;51.726;5.154;2023-07-28T10:21:59;13.27;;;10.80;;
67442;SDS011;54311;51.726;5.154;2023-07-28T10:29:55;14.80;;;11.13;;
67442;SDS011;54311;51.726;5.154;2023-07-28T10:32:26;13.15;;;9.52;;
67442;SDS011;54311;51.726;5.154;2023-07-28T10:35:01;11.32;;;9.65;;
67442;SDS011;54311;51.726;5.154;2023-07-28T10:37:30;10.48;;;9.18;;
67442;SDS011;54311;51.726;5.154;2023-07-28T10:43:02;10.23;;;9.15;;
67442;SDS011;54311;51.726;5.154;2023-07-28T10:45:29;10.68;;;9.00;;
67442;SDS011;54311;51.726;5.154;2023-07-28T10:47:56;11.18;;;8.95;;
67442;SDS011;54311;51.726;5.154;2023-07-28T10:50:25;9.88;;;8.98;;
67442;SDS011;54311;51.726;5.154;2023-07-28T10:52:52;9.50;;;7.97;;
67442;SDS011;54311;51.726;5.154;2023-07-28T10:55:22;8.25;;;7.47;;
67442;SDS011;54311;51.726;5.154;2023-07-28T10:57:49;7.95;;;7.15;;
67442;SDS011;54311;51.726;5.154;2023-07-28T11:00:16;8.35;;;7.60;;
67442;SDS011;54311;51.726;5.154;2023-07-28T11:05:13;8.60;;;7.20;;
67442;SDS011;54311;51.726;5.154;2023-07-28T11:07:43;9.52;;;7.22;;
67442;SDS011;54311;51.726;5.154;2023-07-28T11:10:15;7.35;;;6.65;;
67442;SDS011;54311;51.726;5.154;2023-07-28T11:12:41;5.93;;;5.50;;
67442;SDS011;54311;51.726;5.154;2023-07-28T11:15:10;5.82;;;5.32;;
67442;SDS011;54311;51.726;5.154;2023-07-28T11:17:40;5.75;;;5.07;;
67442;SDS011;54311;51.726;5.154;2023-07-28T11:20:27;6.30;;;5.25;;
67442;SDS011;54311;51.726;5.154;2023-07-28T11:25:19;8.27;;;4.88;;
67442;SDS011;54311;51.726;5.154;2023-07-28T11:27:46;4.95;;;4.60;;
67442;SDS011;54311;51.726;5.154;2023-07-28T11:30:11;5.18;;;4.88;;
67442;SDS011;54311;51.726;5.154;2023-07-28T11:32:38;6.70;;;6.20;;
67442;SDS011;54311;51.726;5.154;2023-07-28T11:35:04;6.18;;;5.38;;
67442;SDS011;54311;51.726;5.154;2023-07-28T11:37:31;5.07;;;4.78;;
67442;SDS011;54311;51.726;5.154;2023-07-28T11:39:58;5.53;;;5.07;;
67442;SDS011;54311;51.726;5.154;2023-07-28T11:42:25;9.82;;;8.52;;
67442;SDS011;54311;51.726;5.154;2023-07-28T11:44:51;11.98;;;10.88;;
67442;SDS011;54311;51.726;5.154;2023-07-28T11:47:17;12.77;;;11.35;;
67442;SDS011;54311;51.726;5.154;2023-07-28T11:49:47;13.75;;;12.27;;
67442;SDS011;54311;51.726;5.154;2023-07-28T11:52:13;14.50;;;12.48;;
67442;SDS011;54311;51.726;5.154;2023-07-28T11:54:39;15.60;;;12.38;;
67442;SDS011;54311;51.726;5.154;2023-07-28T11:57:04;11.20;;;10.00;;
67442;SDS011;54311;51.726;5.154;2023-07-28T11:59:33;10.43;;;7.90;;
67442;SDS011;54311;51.726;5.154;2023-07-28T12:02:00;12.43;;;9.48;;
67442;SDS011;54311;51.726;5.154;2023-07-28T12:04:37;9.60;;;8.70;;
67442;SDS011;54311;51.726;5.154;2023-07-28T12:07:13;10.65;;;9.55;;
67442;SDS011;54311;51.726;5.154;2023-07-28T12:09:50;10.13;;;9.07;;
67442;SDS011;54311;51.726;5.154;2023-07-28T12:12:17;12.20;;;8.63;;
67442;SDS011;54311;51.726;5.154;2023-07-28T12:14:43;10.23;;;8.07;;
67442;SDS011;54311;51.726;5.154;2023-07-28T12:17:15;8.77;;;7.65;;
67442;SDS011;54311;51.726;5.154;2023-07-28T12:19:58;9.02;;;8.10;;
67442;SDS011;54311;51.726;5.154;2023-07-28T12:22:38;8.25;;;7.45;;
67442;SDS011;54311;51.726;5.154;2023-07-28T12:25:03;8.82;;;6.43;;
67442;SDS011;54311;51.726;5.154;2023-07-28T12:27:30;7.45;;;6.85;;
67442;SDS011;54311;51.726;5.154;2023-07-28T12:29:56;6.13;;;5.40;;
67442;SDS011;54311;51.726;5.154;2023-07-28T12:32:21;5.75;;;5.30;;
67442;SDS011;54311;51.726;5.154;2023-07-28T12:34:48;6.10;;;5.53;;
67442;SDS011;54311;51.726;5.154;2023-07-28T12:37:14;6.85;;;5.82;;
67442;SDS011;54311;51.726;5.154;2023-07-28T12:39:39;6.05;;;5.45;;
67442;SDS011;54311;51.726;5.154;2023-07-28T12:42:05;7.47;;;5.63;;
67442;SDS011;54311;51.726;5.154;2023-07-28T12:44:31;6.72;;;6.20;;
67442;SDS011;54311;51.726;5.154;2023-07-28T12:46:57;5.70;;;5.20;;
67442;SDS011;54311;51.726;5.154;2023-07-28T12:49:22;5.65;;;5.15;;
67442;SDS011;54311;51.726;5.154;2023-07-28T12:51:47;4.32;;;4.03;;
67442;SDS011;54311;51.726;5.154;2023-07-28T12:54:13;4.82;;;4.53;;
67442;SDS011;54311;51.726;5.154;2023-07-28T12:56:38;5.55;;;5.05;;
67442;SDS011;54311;51.726;5.154;2023-07-28T12:59:04;4.50;;;4.20;;
67442;SDS011;54311;51.726;5.154;2023-07-28T13:01:29;5.65;;;5.15;;
67442;SDS011;54311;51.726;5.154;2023-07-28T13:03:55;5.18;;;4.70;;
67442;SDS011;54311;51.726;5.154;2023-07-28T13:06:21;5.72;;;5.20;;
67442;SDS011;54311;51.726;5.154;2023-07-28T13:08:46;5.38;;;4.88;;
67442;SDS011;54311;51.726;5.154;2023-07-28T13:11:12;5.65;;;5.15;;
67442;SDS011;54311;51.726;5.154;2023-07-28T13:13:39;5.32;;;4.90;;
67442;SDS011;54311;51.726;5.154;2023-07-28T13:16:05;5.35;;;4.75;;
67442;SDS011;54311;51.726;5.154;2023-07-28T13:18:30;5.85;;;5.35;;
67442;SDS011;54311;51.726;5.154;2023-07-28T13:20:57;9.25;;;7.75;;
67442;SDS011;54311;51.726;5.154;2023-07-28T13:23:23;11.43;;;10.52;;
67442;SDS011;54311;51.726;5.154;2023-07-28T13:25:48;15.38;;;14.05;;
67442;SDS011;54311;51.726;5.154;2023-07-28T13:28:14;17.17;;;15.40;;
67442;SDS011;54311;51.726;5.154;2023-07-28T13:30:40;20.98;;;17.45;;
67442;SDS011;54311;51.726;5.154;2023-07-28T13:33:06;20.92;;;18.75;;
67442;SDS011;54311;51.726;5.154;2023-07-28T13:35:31;22.58;;;20.17;;
67442;SDS011;54311;51.726;5.154;2023-07-28T13:37:57;21.88;;;19.58;;
67442;SDS011;54311;51.726;5.154;2023-07-28T13:40:22;27.52;;;20.00;;
67442;SDS011;54311;51.726;5.154;2023-07-28T13:42:48;22.60;;;20.42;;
67442;SDS011;54311;51.726;5.154;2023-07-28T13:45:13;22.63;;;20.42;;
67442;SDS011;54311;51.726;5.154;2023-07-28T13:47:39;23.25;;;21.02;;
67442;SDS011;54311;51.726;5.154;2023-07-28T13:50:04;26.92;;;21.08;;
67442;SDS011;54311;51.726;5.154;2023-07-28T13:52:31;23.17;;;21.00;;
67442;SDS011;54311;51.726;5.154;2023-07-28T13:54:56;22.20;;;19.60;;
67442;SDS011;54311;51.726;5.154;2023-07-28T13:57:22;21.02;;;18.83;;
67442;SDS011;54311;51.726;5.154;2023-07-28T13:59:47;18.00;;;16.42;;
67442;SDS011;54311;51.726;5.154;2023-07-28T14:02:12;19.88;;;17.95;;
67442;SDS011;54311;51.726;5.154;2023-07-28T14:04:38;21.75;;;19.75;;
67442;SDS011;54311;51.726;5.154;2023-07-28T14:07:03;25.05;;;22.65;;
67442;SDS011;54311;51.726;5.154;2023-07-28T14:09:29;26.27;;;23.98;;
67442;SDS011;54311;51.726;5.154;2023-07-28T14:11:54;26.88;;;24.55;;
67442;SDS011;54311;51.726;5.154;2023-07-28T14:14:19;26.58;;;24.15;;
67442;SDS011;54311;51.726;5.154;2023-07-28T14:16:45;25.25;;;22.98;;
67442;SDS011;54311;51.726;5.154;2023-07-28T14:19:10;22.55;;;20.30;;
67442;SDS011;54311;51.726;5.154;2023-07-28T14:21:36;20.23;;;18.25;;
67442;SDS011;54311;51.726;5.154;2023-07-28T14:24:03;18.70;;;17.05;;
67442;SDS011;54311;51.726;5.154;2023-07-28T14:26:30;23.65;;;21.33;;
67442;SDS011;54311;51.726;5.154;2023-07-28T14:28:55;20.63;;;18.83;;
67442;SDS011;54311;51.726;5.154;2023-07-28T14:31:21;20.00;;;18.30;;
67442;SDS011;54311;51.726;5.154;2023-07-28T14:33:46;20.45;;;18.48;;
67442;SDS011;54311;51.726;5.154;2023-07-28T14:36:11;13.95;;;12.75;;
67442;SDS011;54311;51.726;5.154;2023-07-28T14:38:37;14.63;;;13.25;;
67442;SDS011;54311;51.726;5.154;2023-07-28T14:41:03;13.38;;;12.07;;
67442;SDS011;54311;51.726;5.154;2023-07-28T14:43:28;14.93;;;13.48;;